ADDS METAR Data INFO
IDs: Format: Raw Decoded Include TAF

Data at: 1749 UTC 24 Mar 2017

METAR for:KSAT (San Antonio Intl, TX, US)
Text:KSAT 241651Z 17010KT 9SM SCT014 SCT020 BKN035 23/19 A2997 RMK AO2 SLP132 T02330189
Temperature: 23.3°C ( 74°F)
Dewpoint: 18.9°C ( 66°F) [RH = 76%]
Pressure (altimeter):29.97 inches Hg (1015.0 mb) [Sea level pressure: 1013.2 mb]
Winds:from the S (170 degrees) at 12 MPH (10 knots; 5.1 m/s)
Visibility: 9 sm ( 14 km)
Ceiling:3500 feet AGL
Clouds: scattered clouds at 1400 feet AGL, scattered clouds at 2000 feet AGL, broken clouds at 3500 feet AGL


Page loaded:  17:49 UTC  |   10:49 AM Pacific  |   11:49 AM Mountain  |   12:49 PM Central  |   01:49 PM Eastern

 

ADVISORIES

FORECASTS

FORECASTS

OBSERVATIONS

USER TOOLS

ABOUT US